sensor_id;sensor_type;location;lat;lon;timestamp;temperature;humidity
1347;DHT22;667;48.796;9.480;2022-09-21T00:00:45;10.80;73.20
1347;DHT22;667;48.796;9.480;2022-09-21T00:03:11;10.80;73.40
1347;DHT22;667;48.796;9.480;2022-09-21T00:05:38;10.80;73.40
1347;DHT22;667;48.796;9.480;2022-09-21T00:08:05;10.80;73.30
1347;DHT22;667;48.796;9.480;2022-09-21T00:10:31;10.80;73.30
1347;DHT22;667;48.796;9.480;2022-09-21T00:12:57;10.80;73.30
1347;DHT22;667;48.796;9.480;2022-09-21T00:15:24;10.80;73.30
1347;DHT22;667;48.796;9.480;2022-09-21T00:17:52;10.70;72.60
1347;DHT22;667;48.796;9.480;2022-09-21T00:20:18;10.70;73.10
1347;DHT22;667;48.796;9.480;2022-09-21T00:22:45;10.70;73.00
1347;DHT22;667;48.796;9.480;2022-09-21T00:25:10;10.70;73.30
1347;DHT22;667;48.796;9.480;2022-09-21T00:27:36;10.70;73.40
1347;DHT22;667;48.796;9.480;2022-09-21T00:30:02;10.70;73.10
1347;DHT22;667;48.796;9.480;2022-09-21T00:32:30;10.60;72.90
1347;DHT22;667;48.796;9.480;2022-09-21T00:34:56;10.60;72.90
1347;DHT22;667;48.796;9.480;2022-09-21T00:37:22;10.60;72.80
1347;DHT22;667;48.796;9.480;2022-09-21T00:39:48;10.60;72.80
1347;DHT22;667;48.796;9.480;2022-09-21T00:42:27;10.60;72.60
1347;DHT22;667;48.796;9.480;2022-09-21T00:44:53;10.60;72.60
1347;DHT22;667;48.796;9.480;2022-09-21T00:49:50;10.60;73.70
1347;DHT22;667;48.796;9.480;2022-09-21T00:52:17;10.50;72.90
1347;DHT22;667;48.796;9.480;2022-09-21T00:54:59;10.50;72.80
1347;DHT22;667;48.796;9.480;2022-09-21T00:57:29;10.50;72.60
1347;DHT22;667;48.796;9.480;2022-09-21T00:59:59;10.50;72.40
1347;DHT22;667;48.796;9.480;2022-09-21T01:02:26;10.40;72.30
1347;DHT22;667;48.796;9.480;2022-09-21T01:04:52;10.40;72.40
1347;DHT22;667;48.796;9.480;2022-09-21T01:07:25;10.40;72.60
1347;DHT22;667;48.796;9.480;2022-09-21T01:09:55;10.40;72.60
1347;DHT22;667;48.796;9.480;2022-09-21T01:26:23;10.30;72.30
1347;DHT22;667;48.796;9.480;2022-09-21T01:31:27;10.30;72.50
1347;DHT22;667;48.796;9.480;2022-09-21T01:33:57;10.30;72.50
1347;DHT22;667;48.796;9.480;2022-09-21T01:36:27;10.20;72.30
1347;DHT22;667;48.796;9.480;2022-09-21T01:38:58;10.20;72.20
1347;DHT22;667;48.796;9.480;2022-09-21T01:41:26;10.20;72.20
1347;DHT22;667;48.796;9.480;2022-09-21T01:43:56;10.20;72.10
1347;DHT22;667;48.796;9.480;2022-09-21T01:46:27;10.10;71.80
1347;DHT22;667;48.796;9.480;2022-09-21T01:48:56;10.10;71.80
1347;DHT22;667;48.796;9.480;2022-09-21T01:51:26;10.10;72.00
1347;DHT22;667;48.796;9.480;2022-09-21T01:54:06;10.10;72.00
1347;DHT22;667;48.796;9.480;2022-09-21T01:56:58;10.10;72.00
1347;DHT22;667;48.796;9.480;2022-09-21T02:02:14;10.10;72.40
1347;DHT22;667;48.796;9.480;2022-09-21T02:04:41;10.10;72.70
1347;DHT22;667;48.796;9.480;2022-09-21T02:07:08;10.10;73.40
1347;DHT22;667;48.796;9.480;2022-09-21T02:09:35;10.10;72.90
1347;DHT22;667;48.796;9.480;2022-09-21T02:12:02;10.00;73.10
1347;DHT22;667;48.796;9.480;2022-09-21T02:14:29;10.00;73.30
1347;DHT22;667;48.796;9.480;2022-09-21T02:19:56;10.10;73.90
1347;DHT22;667;48.796;9.480;2022-09-21T02:22:40;10.10;74.20
1347;DHT22;667;48.796;9.480;2022-09-21T02:25:12;10.10;74.80
1347;DHT22;667;48.796;9.480;2022-09-21T02:30:21;10.10;75.50
1347;DHT22;667;48.796;9.480;2022-09-21T02:35:50;10.20;75.90
1347;DHT22;667;48.796;9.480;2022-09-21T02:38:52;10.20;75.80
1347;DHT22;667;48.796;9.480;2022-09-21T02:41:29;10.20;76.00
1347;DHT22;667;48.796;9.480;2022-09-21T02:44:00;10.20;75.50
1347;DHT22;667;48.796;9.480;2022-09-21T02:49:17;10.20;75.20
1347;DHT22;667;48.796;9.480;2022-09-21T02:51:50;10.20;75.10
1347;DHT22;667;48.796;9.480;2022-09-21T02:54:21;10.20;74.90
1347;DHT22;667;48.796;9.480;2022-09-21T02:56:49;10.20;74.90
1347;DHT22;667;48.796;9.480;2022-09-21T02:59:16;10.20;75.40
1347;DHT22;667;48.796;9.480;2022-09-21T03:01:42;10.20;75.30
1347;DHT22;667;48.796;9.480;2022-09-21T03:04:09;10.20;75.60
1347;DHT22;667;48.796;9.480;2022-09-21T03:06:34;10.30;75.70
1347;DHT22;667;48.796;9.480;2022-09-21T03:09:00;10.30;75.70
1347;DHT22;667;48.796;9.480;2022-09-21T03:11:25;10.30;75.80
1347;DHT22;667;48.796;9.480;2022-09-21T03:13:51;10.30;75.70
1347;DHT22;667;48.796;9.480;2022-09-21T03:16:17;10.30;75.70
1347;DHT22;667;48.796;9.480;2022-09-21T03:18:42;10.20;75.70
1347;DHT22;667;48.796;9.480;2022-09-21T03:21:12;10.30;75.90
1347;DHT22;667;48.796;9.480;2022-09-21T03:23:38;10.20;75.80
1347;DHT22;667;48.796;9.480;2022-09-21T03:26:04;10.20;75.40
1347;DHT22;667;48.796;9.480;2022-09-21T03:28:30;10.20;75.40
1347;DHT22;667;48.796;9.480;2022-09-21T03:30:55;10.20;75.50
1347;DHT22;667;48.796;9.480;2022-09-21T03:33:22;10.20;75.30
1347;DHT22;667;48.796;9.480;2022-09-21T03:35:50;10.20;74.90
1347;DHT22;667;48.796;9.480;2022-09-21T03:38:16;10.20;75.20
1347;DHT22;667;48.796;9.480;2022-09-21T03:40:46;10.20;75.00
1347;DHT22;667;48.796;9.480;2022-09-21T03:43:12;10.20;75.20
1347;DHT22;667;48.796;9.480;2022-09-21T03:45:37;10.20;75.30
1347;DHT22;667;48.796;9.480;2022-09-21T03:48:05;10.10;75.10
1347;DHT22;667;48.796;9.480;2022-09-21T03:50:30;10.10;75.10
1347;DHT22;667;48.796;9.480;2022-09-21T03:52:56;10.10;75.10
1347;DHT22;667;48.796;9.480;2022-09-21T03:55:22;10.10;75.30
1347;DHT22;667;48.796;9.480;2022-09-21T03:57:48;10.10;75.00
1347;DHT22;667;48.796;9.480;2022-09-21T04:00:14;10.10;74.60
1347;DHT22;667;48.796;9.480;2022-09-21T04:02:40;10.10;74.60
1347;DHT22;667;48.796;9.480;2022-09-21T04:05:07;10.10;74.60
1347;DHT22;667;48.796;9.480;2022-09-21T04:07:34;10.10;74.50
1347;DHT22;667;48.796;9.480;2022-09-21T04:10:01;10.10;74.90
1347;DHT22;667;48.796;9.480;2022-09-21T04:12:27;10.00;74.80
1347;DHT22;667;48.796;9.480;2022-09-21T04:14:53;10.00;74.60
1347;DHT22;667;48.796;9.480;2022-09-21T04:17:18;10.00;74.60
1347;DHT22;667;48.796;9.480;2022-09-21T04:19:44;10.00;74.50
1347;DHT22;667;48.796;9.480;2022-09-21T04:22:10;10.00;74.60
1347;DHT22;667;48.796;9.480;2022-09-21T04:24:37;10.00;74.70
1347;DHT22;667;48.796;9.480;2022-09-21T04:27:06;10.00;74.90
1347;DHT22;667;48.796;9.480;2022-09-21T04:29:31;10.00;74.80
1347;DHT22;667;48.796;9.480;2022-09-21T04:31:57;10.00;74.60
1347;DHT22;667;48.796;9.480;2022-09-21T04:34:22;10.00;75.10
1347;DHT22;667;48.796;9.480;2022-09-21T04:36:48;9.90;76.30
1347;DHT22;667;48.796;9.480;2022-09-21T04:39:13;9.90;75.80
1347;DHT22;667;48.796;9.480;2022-09-21T04:41:39;9.90;76.10
1347;DHT22;667;48.796;9.480;2022-09-21T04:44:06;9.90;77.10
1347;DHT22;667;48.796;9.480;2022-09-21T04:46:32;9.90;76.60
1347;DHT22;667;48.796;9.480;2022-09-21T04:48:58;10.00;75.30
1347;DHT22;667;48.796;9.480;2022-09-21T04:51:24;9.90;76.40
1347;DHT22;667;48.796;9.480;2022-09-21T04:53:49;9.90;76.30
1347;DHT22;667;48.796;9.480;2022-09-21T04:56:16;9.90;76.40
1347;DHT22;667;48.796;9.480;2022-09-21T04:58:42;9.90;76.20
1347;DHT22;667;48.796;9.480;2022-09-21T05:01:08;9.90;76.30
1347;DHT22;667;48.796;9.480;2022-09-21T05:03:34;9.90;76.30
1347;DHT22;667;48.796;9.480;2022-09-21T05:05:59;9.90;76.50
1347;DHT22;667;48.796;9.480;2022-09-21T05:08:26;9.90;76.60
1347;DHT22;667;48.796;9.480;2022-09-21T05:11:12;9.90;76.70
1347;DHT22;667;48.796;9.480;2022-09-21T05:13:39;9.90;76.80
1347;DHT22;667;48.796;9.480;2022-09-21T05:16:05;9.80;76.50
1347;DHT22;667;48.796;9.480;2022-09-21T05:18:31;9.80;76.70
1347;DHT22;667;48.796;9.480;2022-09-21T05:20:58;9.80;76.60
1347;DHT22;667;48.796;9.480;2022-09-21T05:23:25;9.80;76.70
1347;DHT22;667;48.796;9.480;2022-09-21T05:25:51;9.80;76.50
1347;DHT22;667;48.796;9.480;2022-09-21T05:28:17;9.80;75.90
1347;DHT22;667;48.796;9.480;2022-09-21T05:30:45;9.70;76.20
1347;DHT22;667;48.796;9.480;2022-09-21T05:33:15;9.70;76.20
1347;DHT22;667;48.796;9.480;2022-09-21T05:35:52;9.70;76.30
1347;DHT22;667;48.796;9.480;2022-09-21T05:38:20;9.70;76.50
1347;DHT22;667;48.796;9.480;2022-09-21T05:40:46;9.70;76.60
1347;DHT22;667;48.796;9.480;2022-09-21T05:43:12;9.70;76.70
1347;DHT22;667;48.796;9.480;2022-09-21T05:45:45;9.70;77.00
1347;DHT22;667;48.796;9.480;2022-09-21T05:48:18;9.70;77.20
1347;DHT22;667;48.796;9.480;2022-09-21T05:54:07;9.60;77.50
1347;DHT22;667;48.796;9.480;2022-09-21T06:00:15;9.60;76.90
1347;DHT22;667;48.796;9.480;2022-09-21T06:04:56;9.60;76.90
1347;DHT22;667;48.796;9.480;2022-09-21T06:07:24;9.60;76.80
1347;DHT22;667;48.796;9.480;2022-09-21T06:09:49;9.60;77.30
1347;DHT22;667;48.796;9.480;2022-09-21T06:12:15;9.60;77.50
1347;DHT22;667;48.796;9.480;2022-09-21T06:14:40;9.60;77.50
1347;DHT22;667;48.796;9.480;2022-09-21T06:17:06;9.60;77.30
1347;DHT22;667;48.796;9.480;2022-09-21T06:19:32;9.60;77.10
1347;DHT22;667;48.796;9.480;2022-09-21T06:21:58;9.70;77.30
1347;DHT22;667;48.796;9.480;2022-09-21T06:24:23;9.60;76.80
1347;DHT22;667;48.796;9.480;2022-09-21T06:26:49;9.60;77.00
1347;DHT22;667;48.796;9.480;2022-09-21T06:29:14;9.60;77.30
1347;DHT22;667;48.796;9.480;2022-09-21T06:31:40;9.60;77.80
1347;DHT22;667;48.796;9.480;2022-09-21T06:34:05;9.60;77.70
1347;DHT22;667;48.796;9.480;2022-09-21T06:36:31;9.60;76.90
1347;DHT22;667;48.796;9.480;2022-09-21T06:38:57;9.50;76.80
1347;DHT22;667;48.796;9.480;2022-09-21T06:41:22;9.60;77.60
1347;DHT22;667;48.796;9.480;2022-09-21T06:43:48;9.60;77.90
1347;DHT22;667;48.796;9.480;2022-09-21T06:46:13;9.60;78.80
1347;DHT22;667;48.796;9.480;2022-09-21T06:48:39;9.60;78.20
1347;DHT22;667;48.796;9.480;2022-09-21T06:51:05;9.60;78.40
1347;DHT22;667;48.796;9.480;2022-09-21T06:53:32;9.60;78.60
1347;DHT22;667;48.796;9.480;2022-09-21T06:56:05;9.70;78.80
1347;DHT22;667;48.796;9.480;2022-09-21T06:58:32;9.70;78.80
1347;DHT22;667;48.796;9.480;2022-09-21T07:01:10;9.80;79.00
1347;DHT22;667;48.796;9.480;2022-09-21T07:03:36;9.80;78.80
1347;DHT22;667;48.796;9.480;2022-09-21T07:06:02;9.80;78.30
1347;DHT22;667;48.796;9.480;2022-09-21T07:08:27;9.80;78.20
1347;DHT22;667;48.796;9.480;2022-09-21T07:10:57;9.90;78.20
1347;DHT22;667;48.796;9.480;2022-09-21T07:13:22;9.90;78.00
1347;DHT22;667;48.796;9.480;2022-09-21T07:15:48;9.90;78.00
1347;DHT22;667;48.796;9.480;2022-09-21T07:18:14;9.90;78.20
1347;DHT22;667;48.796;9.480;2022-09-21T07:20:40;10.00;76.90
1347;DHT22;667;48.796;9.480;2022-09-21T07:23:12;10.00;76.80
1347;DHT22;667;48.796;9.480;2022-09-21T07:25:40;10.10;77.20
1347;DHT22;667;48.796;9.480;2022-09-21T07:28:06;10.20;77.50
1347;DHT22;667;48.796;9.480;2022-09-21T07:30:32;10.20;77.20
1347;DHT22;667;48.796;9.480;2022-09-21T07:32:58;10.30;77.20
1347;DHT22;667;48.796;9.480;2022-09-21T07:35:23;10.30;77.40
1347;DHT22;667;48.796;9.480;2022-09-21T07:37:49;10.40;77.30
1347;DHT22;667;48.796;9.480;2022-09-21T07:40:15;10.40;76.90
1347;DHT22;667;48.796;9.480;2022-09-21T07:42:40;10.50;77.00
1347;DHT22;667;48.796;9.480;2022-09-21T07:45:06;10.50;77.80
1347;DHT22;667;48.796;9.480;2022-09-21T07:47:32;10.60;76.90
1347;DHT22;667;48.796;9.480;2022-09-21T07:49:57;10.60;76.70
1347;DHT22;667;48.796;9.480;2022-09-21T07:52:23;10.70;76.80
1347;DHT22;667;48.796;9.480;2022-09-21T07:54:49;10.70;76.70
1347;DHT22;667;48.796;9.480;2022-09-21T07:57:14;10.70;76.50
1347;DHT22;667;48.796;9.480;2022-09-21T07:59:58;10.70;76.50
1347;DHT22;667;48.796;9.480;2022-09-21T08:02:26;10.70;76.50
1347;DHT22;667;48.796;9.480;2022-09-21T08:04:51;10.70;76.80
1347;DHT22;667;48.796;9.480;2022-09-21T08:07:18;10.80;77.10
1347;DHT22;667;48.796;9.480;2022-09-21T08:09:43;10.80;77.30
1347;DHT22;667;48.796;9.480;2022-09-21T08:12:13;10.90;77.60
1347;DHT22;667;48.796;9.480;2022-09-21T08:14:43;10.90;77.60
1347;DHT22;667;48.796;9.480;2022-09-21T08:17:08;11.00;77.60
1347;DHT22;667;48.796;9.480;2022-09-21T08:19:34;11.10;77.80
1347;DHT22;667;48.796;9.480;2022-09-21T08:22:00;11.10;77.80
1347;DHT22;667;48.796;9.480;2022-09-21T08:24:29;11.20;77.90
1347;DHT22;667;48.796;9.480;2022-09-21T08:26:55;11.30;78.10
1347;DHT22;667;48.796;9.480;2022-09-21T08:29:23;11.40;78.10
1347;DHT22;667;48.796;9.480;2022-09-21T08:31:49;11.50;78.10
1347;DHT22;667;48.796;9.480;2022-09-21T08:34:14;11.60;78.10
1347;DHT22;667;48.796;9.480;2022-09-21T08:36:40;11.80;77.90
1347;DHT22;667;48.796;9.480;2022-09-21T08:39:07;11.90;77.80
1347;DHT22;667;48.796;9.480;2022-09-21T08:44:14;12.10;78.50
1347;DHT22;667;48.796;9.480;2022-09-21T08:46:43;12.20;77.40
1347;DHT22;667;48.796;9.480;2022-09-21T08:49:19;12.30;77.40
1347;DHT22;667;48.796;9.480;2022-09-21T08:51:57;12.50;77.40
1347;DHT22;667;48.796;9.480;2022-09-21T08:57:00;12.80;77.20
1347;DHT22;667;48.796;9.480;2022-09-21T08:59:26;12.90;77.00
1347;DHT22;667;48.796;9.480;2022-09-21T09:08:07;13.30;76.50
1347;DHT22;667;48.796;9.480;2022-09-21T09:10:40;13.50;76.70
1347;DHT22;667;48.796;9.480;2022-09-21T09:16:17;13.90;74.60
1347;DHT22;667;48.796;9.480;2022-09-21T09:18:50;14.10;74.60
1347;DHT22;667;48.796;9.480;2022-09-21T09:21:23;14.40;74.50
1347;DHT22;667;48.796;9.480;2022-09-21T09:24:02;14.60;72.90
1347;DHT22;667;48.796;9.480;2022-09-21T09:26:33;14.80;71.90
1347;DHT22;667;48.796;9.480;2022-09-21T09:29:06;15.00;71.60
1347;DHT22;667;48.796;9.480;2022-09-21T09:31:36;15.30;71.50
1347;DHT22;667;48.796;9.480;2022-09-21T09:34:19;15.50;70.50
1347;DHT22;667;48.796;9.480;2022-09-21T09:36:51;15.70;68.40
1347;DHT22;667;48.796;9.480;2022-09-21T09:39:19;15.90;68.30
1347;DHT22;667;48.796;9.480;2022-09-21T09:47:43;16.50;63.30
1347;DHT22;667;48.796;9.480;2022-09-21T09:52:45;16.60;61.80
1347;DHT22;667;48.796;9.480;2022-09-21T09:57:40;16.90;61.20
1347;DHT22;667;48.796;9.480;2022-09-21T10:00:06;17.00;61.00
1347;DHT22;667;48.796;9.480;2022-09-21T10:03:07;17.20;61.60
1347;DHT22;667;48.796;9.480;2022-09-21T10:05:39;17.40;60.00
1347;DHT22;667;48.796;9.480;2022-09-21T10:11:06;17.70;60.00
1347;DHT22;667;48.796;9.480;2022-09-21T10:13:34;17.90;59.20
1347;DHT22;667;48.796;9.480;2022-09-21T10:16:11;18.10;59.50
1347;DHT22;667;48.796;9.480;2022-09-21T10:18:55;18.20;58.00
1347;DHT22;667;48.796;9.480;2022-09-21T10:23:57;18.50;56.20
1347;DHT22;667;48.796;9.480;2022-09-21T10:26:24;18.60;57.50
1347;DHT22;667;48.796;9.480;2022-09-21T10:32:04;18.90;56.40
1347;DHT22;667;48.796;9.480;2022-09-21T10:34:33;18.90;54.60
1347;DHT22;667;48.796;9.480;2022-09-21T10:37:01;18.90;54.60
1347;DHT22;667;48.796;9.480;2022-09-21T10:39:32;18.80;54.20
1347;DHT22;667;48.796;9.480;2022-09-21T10:42:33;18.80;54.60
1347;DHT22;667;48.796;9.480;2022-09-21T10:45:02;18.80;54.40
1347;DHT22;667;48.796;9.480;2022-09-21T10:47:35;18.90;54.30
1347;DHT22;667;48.796;9.480;2022-09-21T10:50:04;19.00;55.00
1347;DHT22;667;48.796;9.480;2022-09-21T10:52:40;19.20;53.80
1347;DHT22;667;48.796;9.480;2022-09-21T10:55:19;19.20;54.10
1347;DHT22;667;48.796;9.480;2022-09-21T10:57:46;19.30;54.10
1347;DHT22;667;48.796;9.480;2022-09-21T11:02:51;19.50;53.20
1347;DHT22;667;48.796;9.480;2022-09-21T11:10:52;19.70;52.80
1347;DHT22;667;48.796;9.480;2022-09-21T11:16:21;19.70;53.10
1347;DHT22;667;48.796;9.480;2022-09-21T11:21:54;19.50;52.30
1347;DHT22;667;48.796;9.480;2022-09-21T11:24:28;19.50;52.40
1347;DHT22;667;48.796;9.480;2022-09-21T11:27:01;19.40;52.30
1347;DHT22;667;48.796;9.480;2022-09-21T11:29:59;19.30;52.30
1347;DHT22;667;48.796;9.480;2022-09-21T11:46:06;19.40;50.40
1347;DHT22;667;48.796;9.480;2022-09-21T11:56:52;19.30;51.50
1347;DHT22;667;48.796;9.480;2022-09-21T12:05:11;19.10;50.40
1347;DHT22;667;48.796;9.480;2022-09-21T12:11:03;18.90;50.70
1347;DHT22;667;48.796;9.480;2022-09-21T12:22:05;18.90;50.70
1347;DHT22;667;48.796;9.480;2022-09-21T12:27:40;19.00;49.90
1347;DHT22;667;48.796;9.480;2022-09-21T12:30:13;19.10;50.30
1347;DHT22;667;48.796;9.480;2022-09-21T12:35:36;19.20;49.70
1347;DHT22;667;48.796;9.480;2022-09-21T12:38:22;19.30;49.40
1347;DHT22;667;48.796;9.480;2022-09-21T12:46:23;19.40;48.70
1347;DHT22;667;48.796;9.480;2022-09-21T12:48:50;19.30;48.00
1347;DHT22;667;48.796;9.480;2022-09-21T12:51:24;19.30;48.20
1347;DHT22;667;48.796;9.480;2022-09-21T12:53:53;19.20;48.30
1347;DHT22;667;48.796;9.480;2022-09-21T13:04:38;18.90;49.10
1347;DHT22;667;48.796;9.480;2022-09-21T13:09:37;18.90;49.00
1347;DHT22;667;48.796;9.480;2022-09-21T13:12:17;18.90;49.00
1347;DHT22;667;48.796;9.480;2022-09-21T13:14:47;19.00;49.00
1347;DHT22;667;48.796;9.480;2022-09-21T13:17:23;19.00;48.30
1347;DHT22;667;48.796;9.480;2022-09-21T13:20:05;19.10;48.20
1347;DHT22;667;48.796;9.480;2022-09-21T13:22:39;19.10;48.30
1347;DHT22;667;48.796;9.480;2022-09-21T13:25:21;19.20;48.20
1347;DHT22;667;48.796;9.480;2022-09-21T13:36:40;19.30;48.50
1347;DHT22;667;48.796;9.480;2022-09-21T13:41:33;19.30;48.00
1347;DHT22;667;48.796;9.480;2022-09-21T13:44:13;19.30;47.60
1347;DHT22;667;48.796;9.480;2022-09-21T13:54:16;19.30;48.40
1347;DHT22;667;48.796;9.480;2022-09-21T13:56:44;19.30;48.10
1347;DHT22;667;48.796;9.480;2022-09-21T13:59:21;19.30;47.70
1347;DHT22;667;48.796;9.480;2022-09-21T14:01:48;19.20;47.80
1347;DHT22;667;48.796;9.480;2022-09-21T14:04:35;19.10;47.80
1347;DHT22;667;48.796;9.480;2022-09-21T14:07:04;19.10;47.90
1347;DHT22;667;48.796;9.480;2022-09-21T14:09:43;19.00;47.90
1347;DHT22;667;48.796;9.480;2022-09-21T14:12:22;18.90;47.80
1347;DHT22;667;48.796;9.480;2022-09-21T14:18:34;18.80;47.50
1347;DHT22;667;48.796;9.480;2022-09-21T14:21:16;18.90;47.00
1347;DHT22;667;48.796;9.480;2022-09-21T14:29:27;18.80;47.10
1347;DHT22;667;48.796;9.480;2022-09-21T14:31:59;18.80;47.10
1347;DHT22;667;48.796;9.480;2022-09-21T14:34:30;18.70;46.80
1347;DHT22;667;48.796;9.480;2022-09-21T14:37:03;18.70;46.70
1347;DHT22;667;48.796;9.480;2022-09-21T14:39:33;18.70;46.80
1347;DHT22;667;48.796;9.480;2022-09-21T14:42:06;18.60;46.20
1347;DHT22;667;48.796;9.480;2022-09-21T14:44:38;18.60;46.00
1347;DHT22;667;48.796;9.480;2022-09-21T15:00:44;18.50;45.30
1347;DHT22;667;48.796;9.480;2022-09-21T15:05:47;18.50;44.70
1347;DHT22;667;48.796;9.480;2022-09-21T15:08:32;18.40;44.60
1347;DHT22;667;48.796;9.480;2022-09-21T15:11:25;18.40;44.80
1347;DHT22;667;48.796;9.480;2022-09-21T15:14:21;18.40;44.90
1347;DHT22;667;48.796;9.480;2022-09-21T15:16:49;18.40;45.00
1347;DHT22;667;48.796;9.480;2022-09-21T15:19:28;18.30;45.20
1347;DHT22;667;48.796;9.480;2022-09-21T15:22:15;18.30;45.50
1347;DHT22;667;48.796;9.480;2022-09-21T15:24:52;18.20;45.90
1347;DHT22;667;48.796;9.480;2022-09-21T15:27:20;18.30;45.90
1347;DHT22;667;48.796;9.480;2022-09-21T15:29:54;18.30;46.00
1347;DHT22;667;48.796;9.480;2022-09-21T15:32:41;18.20;45.90
1347;DHT22;667;48.796;9.480;2022-09-21T15:35:30;18.20;46.10
1347;DHT22;667;48.796;9.480;2022-09-21T15:37:58;18.20;46.30
1347;DHT22;667;48.796;9.480;2022-09-21T15:40:31;18.20;46.40
1347;DHT22;667;48.796;9.480;2022-09-21T15:46:03;18.20;46.40
1347;DHT22;667;48.796;9.480;2022-09-21T15:48:38;18.10;46.90
1347;DHT22;667;48.796;9.480;2022-09-21T15:51:39;18.10;47.20
1347;DHT22;667;48.796;9.480;2022-09-21T15:57:00;18.10;47.10
1347;DHT22;667;48.796;9.480;2022-09-21T15:59:28;18.10;47.30
1347;DHT22;667;48.796;9.480;2022-09-21T16:01:57;18.00;47.30
1347;DHT22;667;48.796;9.480;2022-09-21T16:04:25;18.00;47.60
1347;DHT22;667;48.796;9.480;2022-09-21T16:07:03;18.00;47.90
1347;DHT22;667;48.796;9.480;2022-09-21T16:09:43;18.00;48.10
1347;DHT22;667;48.796;9.480;2022-09-21T16:12:38;18.00;48.10
1347;DHT22;667;48.796;9.480;2022-09-21T16:15:27;17.90;47.60
1347;DHT22;667;48.796;9.480;2022-09-21T16:17:55;17.90;47.70
1347;DHT22;667;48.796;9.480;2022-09-21T16:20:24;17.80;48.30
1347;DHT22;667;48.796;9.480;2022-09-21T16:23:02;17.80;47.90
1347;DHT22;667;48.796;9.480;2022-09-21T16:25:31;17.80;47.70
1347;DHT22;667;48.796;9.480;2022-09-21T16:28:54;17.80;47.60
1347;DHT22;667;48.796;9.480;2022-09-21T16:30:52;17.80;48.00
1347;DHT22;667;48.796;9.480;2022-09-21T16:35:58;17.70;48.40
1347;DHT22;667;48.796;9.480;2022-09-21T16:38:28;17.70;48.40
1347;DHT22;667;48.796;9.480;2022-09-21T16:40:54;17.70;48.40
1347;DHT22;667;48.796;9.480;2022-09-21T16:43:21;17.60;48.70
1347;DHT22;667;48.796;9.480;2022-09-21T16:45:48;17.60;49.60
1347;DHT22;667;48.796;9.480;2022-09-21T16:48:14;17.60;50.60
1347;DHT22;667;48.796;9.480;2022-09-21T16:50:39;17.60;51.10
1347;DHT22;667;48.796;9.480;2022-09-21T16:53:07;17.50;52.20
1347;DHT22;667;48.796;9.480;2022-09-21T16:55:33;17.40;53.50
1347;DHT22;667;48.796;9.480;2022-09-21T16:57:59;17.30;54.60
1347;DHT22;667;48.796;9.480;2022-09-21T17:00:29;17.20;55.30
1347;DHT22;667;48.796;9.480;2022-09-21T17:02:55;17.20;55.90
1347;DHT22;667;48.796;9.480;2022-09-21T17:05:20;17.00;56.20
1347;DHT22;667;48.796;9.480;2022-09-21T17:07:54;16.90;56.60
1347;DHT22;667;48.796;9.480;2022-09-21T17:10:22;16.80;57.00
1347;DHT22;667;48.796;9.480;2022-09-21T17:12:50;16.70;57.30
1347;DHT22;667;48.796;9.480;2022-09-21T17:15:18;16.60;57.70
1347;DHT22;667;48.796;9.480;2022-09-21T17:17:45;16.50;57.90
1347;DHT22;667;48.796;9.480;2022-09-21T17:20:33;16.40;58.10
1347;DHT22;667;48.796;9.480;2022-09-21T17:22:59;16.30;58.60
1347;DHT22;667;48.796;9.480;2022-09-21T17:25:31;16.20;58.80
1347;DHT22;667;48.796;9.480;2022-09-21T17:28:02;16.00;58.80
1347;DHT22;667;48.796;9.480;2022-09-21T17:30:28;15.90;59.10
1347;DHT22;667;48.796;9.480;2022-09-21T17:32:54;15.80;59.30
1347;DHT22;667;48.796;9.480;2022-09-21T17:35:32;15.70;59.80
1347;DHT22;667;48.796;9.480;2022-09-21T17:38:00;15.60;60.00
1347;DHT22;667;48.796;9.480;2022-09-21T17:40:26;15.50;60.10
1347;DHT22;667;48.796;9.480;2022-09-21T17:43:48;15.40;60.50
1347;DHT22;667;48.796;9.480;2022-09-21T17:48:51;15.20;60.90
1347;DHT22;667;48.796;9.480;2022-09-21T17:51:17;15.20;61.30
1347;DHT22;667;48.796;9.480;2022-09-21T17:54:02;15.10;61.60
1347;DHT22;667;48.796;9.480;2022-09-21T17:56:39;15.10;61.90
1347;DHT22;667;48.796;9.480;2022-09-21T17:59:36;15.00;61.70
1347;DHT22;667;48.796;9.480;2022-09-21T18:02:21;14.90;61.30
1347;DHT22;667;48.796;9.480;2022-09-21T18:04:49;14.80;61.50
1347;DHT22;667;48.796;9.480;2022-09-21T18:07:16;14.70;62.20
1347;DHT22;667;48.796;9.480;2022-09-21T18:09:42;14.60;62.60
1347;DHT22;667;48.796;9.480;2022-09-21T18:14:57;14.60;63.20
1347;DHT22;667;48.796;9.480;2022-09-21T18:17:55;14.50;63.40
1347;DHT22;667;48.796;9.480;2022-09-21T18:25:56;14.40;63.60
1347;DHT22;667;48.796;9.480;2022-09-21T18:28:37;14.30;63.70
1347;DHT22;667;48.796;9.480;2022-09-21T18:44:47;14.00;64.70
1347;DHT22;667;48.796;9.480;2022-09-21T18:47:21;14.00;65.00
1347;DHT22;667;48.796;9.480;2022-09-21T18:50:09;13.90;65.10
1347;DHT22;667;48.796;9.480;2022-09-21T18:55:44;13.90;65.70
1347;DHT22;667;48.796;9.480;2022-09-21T18:58:10;13.80;65.70
1347;DHT22;667;48.796;9.480;2022-09-21T19:00:36;13.80;65.90
1347;DHT22;667;48.796;9.480;2022-09-21T19:03:11;13.80;66.10
1347;DHT22;667;48.796;9.480;2022-09-21T19:05:44;13.70;66.00
1347;DHT22;667;48.796;9.480;2022-09-21T19:08:27;13.70;66.10
1347;DHT22;667;48.796;9.480;2022-09-21T19:11:12;13.70;66.20
1347;DHT22;667;48.796;9.480;2022-09-21T19:19:09;13.60;66.20
1347;DHT22;667;48.796;9.480;2022-09-21T19:21:50;13.50;66.20
1347;DHT22;667;48.796;9.480;2022-09-21T19:31:52;13.40;66.70
1347;DHT22;667;48.796;9.480;2022-09-21T19:34:18;13.30;66.70
1347;DHT22;667;48.796;9.480;2022-09-21T19:36:45;13.30;67.50
1347;DHT22;667;48.796;9.480;2022-09-21T19:39:14;13.30;66.80
1347;DHT22;667;48.796;9.480;2022-09-21T19:44:19;13.20;66.80
1347;DHT22;667;48.796;9.480;2022-09-21T19:49:34;13.10;67.00
1347;DHT22;667;48.796;9.480;2022-09-21T19:52:03;13.00;67.10
1347;DHT22;667;48.796;9.480;2022-09-21T19:54:30;13.00;67.00
1347;DHT22;667;48.796;9.480;2022-09-21T20:00:16;13.00;67.40
1347;DHT22;667;48.796;9.480;2022-09-21T20:08:32;12.80;67.50
1347;DHT22;667;48.796;9.480;2022-09-21T20:16:48;12.70;67.50
1347;DHT22;667;48.796;9.480;2022-09-21T20:22:16;12.70;67.80
1347;DHT22;667;48.796;9.480;2022-09-21T20:24:55;12.60;67.80
1347;DHT22;667;48.796;9.480;2022-09-21T20:27:47;12.60;67.80
1347;DHT22;667;48.796;9.480;2022-09-21T20:30:15;12.50;68.50
1347;DHT22;667;48.796;9.480;2022-09-21T20:32:43;12.50;67.90
1347;DHT22;667;48.796;9.480;2022-09-21T20:35:24;12.50;68.10
1347;DHT22;667;48.796;9.480;2022-09-21T20:37:50;12.40;68.10
1347;DHT22;667;48.796;9.480;2022-09-21T20:40:17;12.40;68.30
1347;DHT22;667;48.796;9.480;2022-09-21T20:42:44;12.40;68.50
1347;DHT22;667;48.796;9.480;2022-09-21T20:45:11;12.30;68.50
1347;DHT22;667;48.796;9.480;2022-09-21T20:47:37;12.30;68.70
1347;DHT22;667;48.796;9.480;2022-09-21T20:50:03;12.30;68.70
1347;DHT22;667;48.796;9.480;2022-09-21T20:52:29;12.30;68.70
1347;DHT22;667;48.796;9.480;2022-09-21T20:54:55;12.20;68.90
1347;DHT22;667;48.796;9.480;2022-09-21T20:57:20;12.20;68.90
1347;DHT22;667;48.796;9.480;2022-09-21T20:59:46;12.20;68.80
1347;DHT22;667;48.796;9.480;2022-09-21T21:02:13;12.20;68.70
1347;DHT22;667;48.796;9.480;2022-09-21T21:04:39;12.10;68.60
1347;DHT22;667;48.796;9.480;2022-09-21T21:07:05;12.10;68.70
1347;DHT22;667;48.796;9.480;2022-09-21T21:09:31;12.10;68.80